Terminal Aerodrome Forecast
Issued by NWS Portland, OR

Home | Current Version | Previous Version | Text Only | Print | Product List | Glossary On
Versions: 1 2 3 4 5 6 7 8 9 10 11 12 13 14 15 16 17 18 19 20 21 22 23 24 25 26 27 28 29 30 31 32 33 34
000
FTUS46 KPQR 310520
TAFSLE
TAF
KSLE 310520Z 3106/0106 27004KT P6SM SCT050 BKN070
     FM311000 VRB03KT P6SM BKN025
     FM311400 VRB03KT P6SM SCT025 BKN050
     FM312000 33006KT P6SM SCT070=

USA.gov is the U.S. government's official web portal to all federal, state and local government web resources and services.